Lewisville, Indiana
Current Conditions -  °F | °C
As of 10:53 AM on Saturday 25 Oct 2014 (Local Time) from KGEZ Reporting Station
Overcast Overcast  
Wind Chill: 62°   Ceiling: 1400
Heat Index: 62°   Visibility: 10mi
Dew Point: 54°   Wind: 7mph
Humidity: 75%   Direction: 250°WSW
Pressure: 29.98"   Gusts: NA
Location:  39.81°N, 85.35°W
Report Text: KGEZ 251453Z AUTO 25006KT 10SM BKN014 OVC019 17/12 A2998 RMK AO2 SLP152 T01670122 51001
Loading
Personal Weather Stations






























Interactive Weather Map
Tropical Storm Tracking
New forecast layout! Learn more

10-Day Weather Forecast

Advertisements
Track Severe Weather on mobile